Time;durP1;ratioP1;P1;durP2;ratioP2;P2;SDS_P1;SDS_P2;PMS_P1;PMS_P2;Temp;Humidity;BMP_temperature;BMP_pressure;BME280_temperature;BME280_humidity;BME280_pressure;Samples;Min_cycle;Max_cycle;Signal;HPM_P1;HPM_P2
2021/10/03 00:00:15;;;;;;;8.15;4.95;;;15.80;99.90;;;;;;5072254;28;20214;-63
2021/10/03 00:02:44;;;;;;;5.45;4.32;;;15.90;99.90;;;;;;5072497;28;20280;-64
2021/10/03 00:05:15;;;;;;;4.75;4.20;;;15.80;99.90;;;;;;5072340;28;20254;-64
2021/10/03 00:07:47;;;;;;;5.18;4.68;;;15.90;99.90;;;;;;5072288;28;20601;-64
2021/10/03 00:10:19;;;;;;;4.85;4.30;;;15.80;99.90;;;;;;5071997;28;20223;-63
2021/10/03 00:12:47;;;;;;;4.47;4.07;;;15.80;99.90;;;;;;5072071;28;20603;-63
2021/10/03 00:15:17;;;;;;;5.30;4.80;;;15.80;99.90;;;;;;5072508;28;20295;-64
2021/10/03 00:17:45;;;;;;;6.20;4.32;;;15.80;99.90;;;;;;5072079;28;20643;-63
2021/10/03 00:20:14;;;;;;;4.45;4.03;;;15.90;99.90;;;;;;5072278;28;20216;-63
2021/10/03 00:22:42;;;;;;;5.97;4.00;;;15.80;99.90;;;;;;5072098;28;20219;-63
2021/10/03 00:25:13;;;;;;;6.30;4.10;;;15.80;99.90;;;;;;5071901;28;20205;-63
2021/10/03 00:27:43;;;;;;;4.93;4.53;;;15.80;99.90;;;;;;5072508;28;20284;-64
2021/10/03 00:30:11;;;;;;;5.75;4.40;;;15.90;99.90;;;;;;5072078;28;20201;-63
2021/10/03 00:32:39;;;;;;;5.32;4.10;;;15.90;99.90;;;;;;5072279;28;20228;-62
2021/10/03 00:35:08;;;;;;;4.88;4.13;;;16.00;99.90;;;;;;5072170;28;20544;-63
2021/10/03 00:37:36;;;;;;;5.75;4.00;;;16.00;99.90;;;;;;5072114;28;20200;-63
2021/10/03 00:40:06;;;;;;;4.10;3.70;;;16.00;99.90;;;;;;5072027;28;20252;-63
2021/10/03 00:42:34;;;;;;;5.35;4.00;;;16.10;99.90;;;;;;5072143;28;20207;-64
2021/10/03 00:45:04;;;;;;;4.22;3.85;;;16.10;99.90;;;;;;5071623;28;20609;-64
2021/10/03 00:47:32;;;;;;;5.25;4.03;;;16.10;99.90;;;;;;5071651;28;20290;-63
2021/10/03 00:50:00;;;;;;;5.90;4.10;;;16.10;99.90;;;;;;5071785;28;20201;-65
2021/10/03 00:52:27;;;;;;;4.47;4.07;;;16.10;99.90;;;;;;5075766;28;20201;-63
2021/10/03 00:54:55;;;;;;;4.05;3.65;;;16.20;99.90;;;;;;5075676;28;20299;-63
2021/10/03 00:57:23;;;;;;;4.18;3.78;;;16.20;99.90;;;;;;5075629;28;20228;-63
2021/10/03 00:59:51;;;;;;;4.45;3.72;;;16.20;99.90;;;;;;5075595;28;20213;-64
2021/10/03 01:02:20;;;;;;;4.32;3.70;;;16.20;99.90;;;;;;5075564;28;20197;-62
2021/10/03 01:04:48;;;;;;;4.97;3.92;;;16.20;99.90;;;;;;5075293;28;20232;-63
2021/10/03 01:07:16;;;;;;;4.75;3.80;;;16.20;99.90;;;;;;5075395;28;20222;-63
2021/10/03 01:09:44;;;;;;;5.35;3.65;;;16.20;99.90;;;;;;5075339;28;20200;-64
2021/10/03 01:12:13;;;;;;;4.68;3.65;;;16.20;99.90;;;;;;5075203;28;20558;-64
2021/10/03 01:14:40;;;;;;;4.72;3.90;;;16.10;99.90;;;;;;5074935;28;20747;-63
2021/10/03 01:17:08;;;;;;;4.15;3.63;;;16.10;99.90;;;;;;5075163;28;20201;-64
2021/10/03 01:19:39;;;;;;;4.28;3.70;;;16.10;99.90;;;;;;5075192;28;20215;-62
2021/10/03 01:22:08;;;;;;;4.90;3.58;;;16.20;99.90;;;;;;5075168;28;20203;-63
2021/10/03 01:24:36;;;;;;;4.10;3.72;;;16.20;99.90;;;;;;5074742;28;20207;-64
2021/10/03 01:27:04;;;;;;;5.38;3.85;;;16.10;99.90;;;;;;5075000;28;20640;-65
2021/10/03 01:29:33;;;;;;;4.03;3.63;;;16.10;99.90;;;;;;5075141;28;20239;-63
2021/10/03 01:32:01;;;;;;;5.03;3.97;;;16.00;99.90;;;;;;5074973;28;20196;-64
2021/10/03 01:34:29;;;;;;;4.55;3.72;;;16.00;99.90;;;;;;5074941;28;20297;-63
2021/10/03 01:36:56;;;;;;;5.00;3.92;;;16.00;99.90;;;;;;5075034;28;20204;-64
2021/10/03 01:39:25;;;;;;;6.03;4.13;;;16.00;99.90;;;;;;5074888;28;20201;-63
2021/10/03 01:41:53;;;;;;;4.38;3.97;;;16.00;99.90;;;;;;5074598;28;20216;-66
2021/10/03 01:44:21;;;;;;;4.32;3.92;;;16.00;99.90;;;;;;5074585;28;20211;-63
2021/10/03 01:46:49;;;;;;;5.22;4.20;;;16.00;99.90;;;;;;5074467;28;20229;-63
2021/10/03 01:49:17;;;;;;;4.32;3.92;;;16.00;99.90;;;;;;5074771;28;20267;-63
2021/10/03 01:51:45;;;;;;;4.95;4.07;;;15.90;99.90;;;;;;5074694;28;20196;-64
2021/10/03 01:54:13;;;;;;;5.57;4.32;;;15.80;99.90;;;;;;5074612;28;20318;-64
2021/10/03 01:56:42;;;;;;;4.53;4.13;;;15.90;99.90;;;;;;5074576;28;20203;-64
2021/10/03 01:59:10;;;;;;;5.00;4.05;;;15.90;99.90;;;;;;5074492;28;20205;-64
2021/10/03 02:01:43;;;;;;;4.93;4.43;;;15.90;99.90;;;;;;5074298;28;20247;-64
2021/10/03 02:04:15;;;;;;;4.22;3.83;;;15.80;99.90;;;;;;5074146;28;20563;-64
2021/10/03 02:06:44;;;;;;;4.82;4.30;;;15.80;99.90;;;;;;5074518;28;20181;-64
2021/10/03 02:09:13;;;;;;;4.88;4.43;;;15.70;99.90;;;;;;5074361;28;20626;-63
2021/10/03 02:11:44;;;;;;;5.35;4.40;;;15.80;99.90;;;;;;5074199;28;20307;-64
2021/10/03 02:14:14;;;;;;;4.82;4.30;;;15.70;99.90;;;;;;5074044;28;20699;-64
2021/10/03 02:16:42;;;;;;;5.20;4.70;;;15.70;99.90;;;;;;5074222;28;20197;-64
2021/10/03 02:19:11;;;;;;;5.88;4.72;;;15.70;99.90;;;;;;5073870;28;20683;-63
2021/10/03 02:21:39;;;;;;;6.80;5.00;;;15.70;99.90;;;;;;5073853;28;20778;-64
2021/10/03 02:24:07;;;;;;;4.95;4.43;;;15.70;99.90;;;;;;5073733;28;20254;-64
2021/10/03 02:26:35;;;;;;;5.43;4.68;;;15.70;99.90;;;;;;5073643;28;20205;-64
2021/10/03 02:29:05;;;;;;;6.50;4.80;;;15.60;99.90;;;;;;5073937;28;20201;-65
2021/10/03 02:31:32;;;;;;;5.55;4.45;;;15.60;99.90;;;;;;5074107;28;20220;-64
2021/10/03 02:34:01;;;;;;;5.32;4.82;;;15.50;99.90;;;;;;5073399;28;20660;-65
2021/10/03 02:36:29;;;;;;;5.47;4.95;;;15.70;99.90;;;;;;5073848;28;20196;-63
2021/10/03 02:38:57;;;;;;;8.18;4.70;;;15.70;99.90;;;;;;5073500;28;20295;-65
2021/10/03 02:41:26;;;;;;;5.47;4.65;;;15.70;99.90;;;;;;5073289;28;20739;-64
2021/10/03 02:43:57;;;;;;;4.93;4.53;;;15.60;99.90;;;;;;5073657;28;20200;-65
2021/10/03 02:46:28;;;;;;;6.00;4.80;;;15.60;99.90;;;;;;5073027;28;20185;-64
2021/10/03 02:48:56;;;;;;;5.45;4.95;;;15.60;99.90;;;;;;5073277;28;20235;-64
2021/10/03 02:51:26;;;;;;;5.68;5.07;;;15.60;99.90;;;;;;5073514;28;20196;-64
2021/10/03 02:53:55;;;;;;;6.03;5.28;;;15.60;99.90;;;;;;5073714;28;20187;-64
2021/10/03 02:56:25;;;;;;;6.60;4.68;;;15.60;99.90;;;;;;5073379;28;20207;-65
2021/10/03 02:58:54;;;;;;;6.68;5.20;;;15.60;99.90;;;;;;5072938;28;20688;-65
2021/10/03 03:01:22;;;;;;;6.07;5.20;;;15.60;99.90;;;;;;5073111;28;20721;-64
2021/10/03 03:03:52;;;;;;;6.22;5.65;;;15.70;99.90;;;;;;5073277;28;20270;-64
2021/10/03 03:06:19;;;;;;;6.43;4.72;;;15.70;99.90;;;;;;5073264;28;20201;-65
2021/10/03 03:08:47;;;;;;;6.30;5.70;;;15.80;99.90;;;;;;5073007;28;20204;-65
2021/10/03 03:11:16;;;;;;;5.30;4.80;;;15.80;99.90;;;;;;5072885;28;20300;-64
2021/10/03 03:13:43;;;;;;;5.72;5.22;;;15.80;99.90;;;;;;5072233;28;20613;-64
2021/10/03 03:16:13;;;;;;;6.50;5.68;;;15.90;99.90;;;;;;5072911;28;20204;-62
2021/10/03 03:18:43;;;;;;;7.45;6.15;;;15.90;99.90;;;;;;5072807;28;20205;-64
2021/10/03 03:21:12;;;;;;;6.32;5.72;;;15.90;99.90;;;;;;5072738;28;20698;-64
2021/10/03 03:23:41;;;;;;;8.30;6.00;;;15.90;99.90;;;;;;5072973;28;20219;-65
2021/10/03 03:26:09;;;;;;;6.60;5.90;;;16.00;99.90;;;;;;5072546;28;20691;-64
2021/10/03 03:28:37;;;;;;;7.38;5.93;;;16.00;99.90;;;;;;5072932;28;20201;-63
2021/10/03 03:31:05;;;;;;;7.00;6.30;;;16.00;99.90;;;;;;5072842;28;20287;-64
2021/10/03 03:33:33;;;;;;;6.95;6.22;;;16.00;99.90;;;;;;5072783;28;20205;-64
2021/10/03 03:36:01;;;;;;;8.70;6.88;;;16.00;99.90;;;;;;5072899;28;20200;-64
2021/10/03 03:38:35;;;;;;;9.88;6.93;;;16.00;99.90;;;;;;5072825;28;20606;-64
2021/10/03 03:41:03;;;;;;;7.00;6.40;;;15.90;99.90;;;;;;5072395;28;20280;-65
2021/10/03 03:43:31;;;;;;;7.50;6.70;;;15.90;99.90;;;;;;5072863;28;20312;-64
2021/10/03 03:45:59;;;;;;;8.20;7.15;;;15.90;99.90;;;;;;5072404;28;20204;-64
2021/10/03 03:48:27;;;;;;;7.38;6.68;;;15.90;99.90;;;;;;5072102;28;20286;-64
2021/10/03 03:50:55;;;;;;;8.27;7.00;;;15.90;99.90;;;;;;5072709;28;20200;-64
2021/10/03 03:53:23;;;;;;;8.00;7.18;;;15.80;99.90;;;;;;5072628;28;20231;-64
2021/10/03 03:55:52;;;;;;;8.15;7.40;;;15.70;99.90;;;;;;5072359;28;20207;-65
2021/10/03 03:58:20;;;;;;;7.78;6.97;;;15.60;99.90;;;;;;5072296;28;20211;-64
2021/10/03 04:00:48;;;;;;;10.02;7.90;;;15.60;99.90;;;;;;5072193;28;20295;-64
2021/10/03 04:03:16;;;;;;;8.73;7.72;;;15.50;99.90;;;;;;5072493;28;20264;-65
2021/10/03 04:05:43;;;;;;;11.25;8.57;;;15.50;99.90;;;;;;5072608;28;20559;-64
2021/10/03 04:08:11;;;;;;;9.02;7.20;;;15.40;99.90;;;;;;5072326;28;20288;-66
2021/10/03 04:10:39;;;;;;;8.35;7.50;;;15.40;99.90;;;;;;5072306;28;20203;-65
2021/10/03 04:13:08;;;;;;;10.40;7.75;;;15.40;99.90;;;;;;5072600;28;20193;-65
2021/10/03 04:15:36;;;;;;;9.38;8.38;;;15.30;99.90;;;;;;5072483;28;20197;-66
2021/10/03 04:18:04;;;;;;;8.70;7.90;;;15.40;99.90;;;;;;5071901;28;20652;-63
2021/10/03 04:20:32;;;;;;;8.13;7.32;;;15.30;99.90;;;;;;5072530;28;20201;-65
2021/10/03 04:22:59;;;;;;;11.80;8.02;;;15.20;99.90;;;;;;5072388;28;20213;-65
2021/10/03 04:25:27;;;;;;;9.07;8.18;;;15.20;99.90;;;;;;5074943;28;20299;-64
2021/10/03 04:27:55;;;;;;;8.57;7.68;;;15.20;99.90;;;;;;5076104;28;20875;-65
2021/10/03 04:30:24;;;;;;;9.45;8.45;;;15.10;99.90;;;;;;5075982;28;20207;-64
2021/10/03 04:32:52;;;;;;;8.77;7.68;;;15.10;99.90;;;;;;5076125;28;20204;-64
2021/10/03 04:35:20;;;;;;;9.00;8.10;;;15.00;99.90;;;;;;5076160;28;20201;-65
2021/10/03 04:37:48;;;;;;;8.68;7.88;;;15.00;99.90;;;;;;5076182;28;20295;-65
2021/10/03 04:40:16;;;;;;;11.02;7.82;;;15.00;99.90;;;;;;5075652;28;20766;-64
2021/10/03 04:42:45;;;;;;;10.50;8.15;;;15.00;99.90;;;;;;5076386;28;20222;-64
2021/10/03 04:45:13;;;;;;;9.45;8.40;;;15.00;99.90;;;;;;5076030;28;20321;-64
2021/10/03 04:47:42;;;;;;;9.13;8.13;;;15.00;99.90;;;;;;5075559;28;20229;-65
2021/10/03 04:50:10;;;;;;;9.02;8.13;;;15.10;99.90;;;;;;5075690;28;20200;-65
2021/10/03 04:52:39;;;;;;;8.65;7.82;;;15.10;99.90;;;;;;5075893;28;20196;-65
2021/10/03 04:55:09;;;;;;;8.68;7.88;;;15.10;99.90;;;;;;5075560;28;20523;-64
2021/10/03 04:57:38;;;;;;;9.70;7.65;;;15.10;99.90;;;;;;5075303;28;20692;-67
2021/10/03 05:00:08;;;;;;;8.50;7.60;;;15.10;99.90;;;;;;5075339;28;20671;-65
2021/10/03 05:02:37;;;;;;;8.82;7.43;;;15.10;99.90;;;;;;5075329;28;20296;-65
2021/10/03 05:05:07;;;;;;;8.32;7.53;;;15.10;99.90;;;;;;5075541;28;20200;-64
2021/10/03 05:07:35;;;;;;;9.70;7.72;;;15.10;99.90;;;;;;5075666;28;20271;-64
2021/10/03 05:10:04;;;;;;;9.00;7.70;;;15.20;99.90;;;;;;5075405;28;20234;-64
2021/10/03 05:12:32;;;;;;;9.43;8.18;;;15.10;99.90;;;;;;5075493;28;20299;-65
2021/10/03 05:15:00;;;;;;;8.73;7.47;;;15.10;99.90;;;;;;5075414;28;20212;-66
2021/10/03 05:17:28;;;;;;;8.38;7.45;;;15.20;99.90;;;;;;5075289;28;20295;-65
2021/10/03 05:19:55;;;;;;;8.38;7.45;;;15.20;99.90;;;;;;5075380;28;20292;-66
2021/10/03 05:22:24;;;;;;;8.80;7.47;;;15.30;99.90;;;;;;5075193;28;20546;-65
2021/10/03 05:24:52;;;;;;;7.75;6.95;;;15.30;99.90;;;;;;5075134;28;20200;-64
2021/10/03 05:27:21;;;;;;;8.10;7.28;;;15.50;99.90;;;;;;5075232;28;20208;-65
2021/10/03 05:29:49;;;;;;;7.75;6.97;;;15.50;99.90;;;;;;5075241;28;20608;-64
2021/10/03 05:32:17;;;;;;;8.18;7.38;;;15.50;99.90;;;;;;5075133;28;20284;-64
2021/10/03 05:34:44;;;;;;;9.73;7.15;;;15.50;99.90;;;;;;5075111;28;20204;-65
2021/10/03 05:37:13;;;;;;;9.25;7.25;;;15.50;99.90;;;;;;5074587;28;20205;-64
2021/10/03 05:39:42;;;;;;;8.35;7.45;;;15.50;99.90;;;;;;5075062;28;20296;-64
2021/10/03 05:42:10;;;;;;;10.15;7.55;;;15.50;99.90;;;;;;5074787;28;20200;-66
2021/10/03 05:44:37;;;;;;;8.27;7.47;;;15.50;99.90;;;;;;5074885;28;20197;-65
2021/10/03 05:47:05;;;;;;;9.93;7.63;;;15.50;99.90;;;;;;5074289;28;20323;-67
2021/10/03 05:49:33;;;;;;;8.65;7.30;;;15.50;99.90;;;;;;5074816;28;20533;-64
2021/10/03 05:52:01;;;;;;;9.20;7.78;;;15.50;99.90;;;;;;5074736;28;20208;-64
2021/10/03 05:54:29;;;;;;;8.30;7.50;;;15.50;99.90;;;;;;5074753;28;20283;-65
2021/10/03 05:56:58;;;;;;;9.43;7.53;;;15.60;99.90;;;;;;5074440;28;20207;-65
2021/10/03 05:59:26;;;;;;;8.00;7.20;;;15.60;99.90;;;;;;5074604;28;20205;-65
2021/10/03 06:01:54;;;;;;;8.20;7.30;;;15.70;99.90;;;;;;5074458;28;20197;-65
2021/10/03 06:04:22;;;;;;;8.93;7.10;;;15.80;99.90;;;;;;5074295;28;20316;-65
2021/10/03 06:06:50;;;;;;;8.15;7.35;;;15.80;99.90;;;;;;5074489;28;20240;-65
2021/10/03 06:09:18;;;;;;;8.52;7.70;;;15.90;99.90;;;;;;5074345;28;20291;-66
2021/10/03 06:11:46;;;;;;;7.65;6.93;;;16.00;99.90;;;;;;5073983;28;20295;-67
2021/10/03 06:14:15;;;;;;;8.00;6.78;;;16.10;99.90;;;;;;5074196;28;20292;-65
2021/10/03 06:16:43;;;;;;;8.50;7.60;;;16.30;99.90;;;;;;5074169;28;20629;-65
2021/10/03 06:19:12;;;;;;;12.48;7.68;;;16.30;99.90;;;;;;5074261;28;20204;-66
2021/10/03 06:21:40;;;;;;;7.85;7.05;;;16.40;99.90;;;;;;5073874;28;20228;-66
2021/10/03 06:24:08;;;;;;;8.15;7.13;;;16.40;99.90;;;;;;5073801;28;20316;-67
2021/10/03 06:26:37;;;;;;;7.75;6.95;;;16.40;99.90;;;;;;5073606;28;20197;-65
2021/10/03 06:29:05;;;;;;;9.60;7.03;;;16.50;99.90;;;;;;5073895;28;20205;-66
2021/10/03 06:31:34;;;;;;;9.60;7.45;;;16.50;99.90;;;;;;5073867;28;20263;-65
2021/10/03 06:34:02;;;;;;;9.30;6.80;;;16.50;99.90;;;;;;5073386;28;20209;-66
2021/10/03 06:36:30;;;;;;;9.88;7.57;;;16.40;99.90;;;;;;5073517;28;20338;-65
2021/10/03 06:38:58;;;;;;;8.05;7.03;;;16.40;99.90;;;;;;5073615;28;20291;-66
2021/10/03 06:41:25;;;;;;;9.23;6.97;;;16.40;99.90;;;;;;5073112;28;20287;-67
2021/10/03 06:43:53;;;;;;;8.10;7.30;;;16.40;99.90;;;;;;5073508;28;20323;-65
2021/10/03 06:46:21;;;;;;;8.15;7.07;;;16.40;99.90;;;;;;5073294;28;20211;-66
2021/10/03 06:48:50;;;;;;;7.90;7.10;;;16.40;99.90;;;;;;5072198;28;20594;-66
2021/10/03 06:51:18;;;;;;;7.75;6.95;;;16.50;99.90;;;;;;5073473;28;20291;-66
2021/10/03 06:53:46;;;;;;;8.00;7.20;;;16.60;99.90;;;;;;5073236;28;20745;-66
2021/10/03 06:56:14;;;;;;;7.57;6.80;;;16.60;99.90;;;;;;5073008;28;20581;-66
2021/10/03 06:58:42;;;;;;;7.82;7.03;;;16.70;99.90;;;;;;5073267;28;20228;-67
2021/10/03 07:01:13;;;;;;;8.45;6.95;;;16.90;99.90;;;;;;5073418;28;20229;-67
2021/10/03 07:03:41;;;;;;;7.50;6.80;;;17.00;99.90;;;;;;5072758;28;20278;-66
2021/10/03 07:06:11;;;;;;;7.63;6.93;;;17.10;99.90;;;;;;5073104;28;20204;-67
2021/10/03 07:08:39;;;;;;;7.93;6.55;;;17.30;99.90;;;;;;5072888;28;20205;-66
2021/10/03 07:11:07;;;;;;;9.85;6.43;;;17.30;99.90;;;;;;5072999;28;20200;-66
2021/10/03 07:13:35;;;;;;;8.45;6.80;;;17.40;99.90;;;;;;5073083;28;20279;-65
2021/10/03 07:16:03;;;;;;;7.18;6.47;;;17.50;99.90;;;;;;5073033;28;20212;-67
2021/10/03 07:18:31;;;;;;;7.75;6.65;;;17.70;99.90;;;;;;5072927;28;20207;-66
2021/10/03 07:20:59;;;;;;;7.10;6.45;;;17.70;99.90;;;;;;5073050;28;20216;-67
2021/10/03 07:23:29;;;;;;;7.07;6.38;;;17.80;99.90;;;;;;5072691;28;20767;-66
2021/10/03 07:25:57;;;;;;;7.15;6.45;;;18.00;99.90;;;;;;5072938;28;20184;-66
2021/10/03 07:28:25;;;;;;;6.82;6.20;;;18.00;99.90;;;;;;5072857;28;20232;-67
2021/10/03 07:30:53;;;;;;;7.22;6.20;;;18.20;99.90;;;;;;5072598;28;20315;-67
2021/10/03 07:33:22;;;;;;;7.68;6.72;;;18.30;99.90;;;;;;5072468;28;20670;-67
2021/10/03 07:35:50;;;;;;;8.38;6.45;;;18.30;99.90;;;;;;5072596;28;20232;-67
2021/10/03 07:38:18;;;;;;;7.40;6.38;;;18.40;99.90;;;;;;5072869;28;20279;-67
2021/10/03 07:40:47;;;;;;;7.30;6.53;;;18.50;99.90;;;;;;5072675;28;20291;-67
2021/10/03 07:43:15;;;;;;;6.77;6.03;;;18.40;99.90;;;;;;5072472;28;20228;-67
2021/10/03 07:45:43;;;;;;;6.78;6.07;;;18.40;99.90;;;;;;5072702;28;20204;-68
2021/10/03 07:48:10;;;;;;;7.35;6.28;;;18.40;99.90;;;;;;5072126;28;20225;-67
2021/10/03 07:50:38;;;;;;;6.63;6.00;;;18.40;99.90;;;;;;5072684;28;20200;-66
2021/10/03 07:53:06;;;;;;;7.60;6.70;;;18.30;99.90;;;;;;5072691;28;20292;-66
2021/10/03 07:55:34;;;;;;;8.48;6.10;;;18.30;99.90;;;;;;5072570;28;20299;-66
2021/10/03 07:58:05;;;;;;;7.13;6.10;;;18.40;99.90;;;;;;5072659;28;20228;-67
2021/10/03 08:00:34;;;;;;;7.45;6.18;;;18.40;99.90;;;;;;5072124;28;20630;-67
2021/10/03 08:03:05;;;;;;;7.35;6.30;;;18.40;99.90;;;;;;5072394;28;20585;-67
2021/10/03 08:05:34;;;;;;;7.45;6.28;;;18.40;99.90;;;;;;5072167;28;20254;-68
2021/10/03 08:08:03;;;;;;;6.88;6.28;;;18.50;99.90;;;;;;5072659;28;20556;-67
2021/10/03 08:10:32;;;;;;;7.10;5.95;;;18.50;99.90;;;;;;5072341;28;20197;-67
2021/10/03 08:13:00;;;;;;;7.03;6.00;;;18.70;99.90;;;;;;5072206;28;20200;-67
2021/10/03 08:15:29;;;;;;;6.72;5.97;;;18.80;99.90;;;;;;5071912;28;20547;-66
2021/10/03 08:17:57;;;;;;;6.40;5.80;;;18.90;99.90;;;;;;5071858;28;20546;-68
2021/10/03 08:20:25;;;;;;;6.50;5.72;;;18.90;99.90;;;;;;5072205;28;20231;-66
2021/10/03 08:22:54;;;;;;;7.30;6.10;;;18.90;99.90;;;;;;5072262;28;20204;-65
2021/10/03 08:25:21;;;;;;;6.68;6.05;;;19.10;99.90;;;;;;5072189;28;20224;-66
2021/10/03 08:27:49;;;;;;;7.30;6.00;;;19.20;99.90;;;;;;5072092;28;20292;-68
2021/10/03 08:30:17;;;;;;;6.05;5.45;;;19.30;99.90;;;;;;5072356;28;20201;-66
2021/10/03 08:32:47;;;;;;;7.20;5.55;;;19.30;99.90;;;;;;5072046;28;20268;-67
2021/10/03 08:35:15;;;;;;;6.38;5.78;;;19.40;99.90;;;;;;5072331;28;20220;-67
2021/10/03 08:37:43;;;;;;;7.00;5.60;;;19.40;99.90;;;;;;5072255;28;20200;-66
2021/10/03 08:40:13;;;;;;;5.75;5.25;;;19.40;99.90;;;;;;5072204;28;20291;-66
2021/10/03 08:42:42;;;;;;;6.03;5.35;;;19.40;99.90;;;;;;5072005;28;20568;-67
2021/10/03 08:45:10;;;;;;;5.80;5.25;;;19.50;99.90;;;;;;5072121;28;20247;-66
2021/10/03 08:47:41;;;;;;;7.05;5.93;;;19.50;99.90;;;;;;5071808;28;20229;-66
2021/10/03 08:50:12;;;;;;;6.18;5.60;;;19.30;99.90;;;;;;5072000;28;20648;-66
2021/10/03 08:52:41;;;;;;;6.20;5.60;;;19.50;99.90;;;;;;5071997;28;20280;-67
2021/10/03 08:55:10;;;;;;;7.35;5.70;;;19.50;99.90;;;;;;5072100;28;20610;-66
2021/10/03 08:57:39;;;;;;;6.45;5.63;;;19.60;99.90;;;;;;5072061;28;20197;-66
2021/10/03 09:00:12;;;;;;;6.82;6.13;;;19.70;99.90;;;;;;5072102;28;20227;-66
2021/10/03 09:02:54;;;;;;;8.15;6.72;;;20.00;99.90;;;;;;5071997;28;20272;-67
2021/10/03 09:05:25;;;;;;;6.72;6.03;;;20.10;99.90;;;;;;5071752;28;20267;-68
2021/10/03 09:08:01;;;;;;;6.53;5.47;;;20.20;99.90;;;;;;5092089;28;20180;-66
2021/10/03 09:10:45;;;;;;;6.00;5.40;;;20.20;99.90;;;;;;5092159;28;20227;-67
2021/10/03 09:13:14;;;;;;;5.38;4.88;;;20.20;99.90;;;;;;5095516;28;20600;-66
2021/10/03 09:15:42;;;;;;;7.25;5.32;;;20.40;99.90;;;;;;5095529;28;20291;-67
2021/10/03 09:18:10;;;;;;;6.85;5.57;;;20.50;99.90;;;;;;5095364;28;20734;-66
2021/10/03 09:20:39;;;;;;;5.95;5.15;;;20.60;99.90;;;;;;5095726;28;20296;-66
2021/10/03 09:23:11;;;;;;;5.28;4.80;;;20.60;99.90;;;;;;5095474;28;20196;-66
2021/10/03 09:25:45;;;;;;;5.60;5.00;;;20.60;99.90;;;;;;5095296;28;20295;-66
2021/10/03 09:28:17;;;;;;;6.20;5.50;;;20.60;99.90;;;;;;5095504;28;20276;-66
2021/10/03 09:31:10;;;;;;;6.00;5.10;;;20.70;99.90;;;;;;5095287;28;20215;-67
2021/10/03 09:33:41;;;;;;;7.85;4.90;;;20.70;99.90;;;;;;5080355;28;20207;-67
2021/10/03 09:36:12;;;;;;;5.82;5.32;;;20.90;99.90;;;;;;5095430;28;20220;-66
2021/10/03 09:38:46;;;;;;;5.45;4.95;;;21.00;99.90;;;;;;5095554;28;20183;-67
2021/10/03 09:41:15;;;;;;;5.90;5.32;;;21.20;99.90;;;;;;5095006;28;20205;-66
2021/10/03 09:43:48;;;;;;;6.38;5.70;;;21.30;99.90;;;;;;5095272;28;20206;-66
2021/10/03 09:46:37;;;;;;;6.93;5.47;;;21.50;99.90;;;;;;5094969;28;20325;-67
2021/10/03 09:49:08;;;;;;;5.47;4.95;;;21.60;99.90;;;;;;5094710;28;20640;-66
2021/10/03 09:51:38;;;;;;;5.72;5.13;;;21.60;99.90;;;;;;5095204;28;20271;-66
2021/10/03 09:54:07;;;;;;;5.28;4.85;;;21.70;99.90;;;;;;5095025;28;20208;-66
2021/10/03 09:56:35;;;;;;;4.78;4.38;;;21.80;99.90;;;;;;5094957;28;20299;-67
2021/10/03 09:59:05;;;;;;;5.57;5.00;;;22.00;99.90;;;;;;5075907;28;20204;-66
2021/10/03 10:01:34;;;;;;;4.82;4.43;;;22.20;99.90;;;;;;5074475;28;20690;-67
2021/10/03 10:04:03;;;;;;;4.63;4.22;;;22.40;99.90;;;;;;5074550;28;20204;-67
2021/10/03 10:06:31;;;;;;;6.22;4.55;;;22.50;99.90;;;;;;5074601;28;20315;-66
2021/10/03 10:09:05;;;;;;;6.35;4.50;;;22.60;99.90;;;;;;5074591;28;20223;-66
2021/10/03 10:11:37;;;;;;;5.60;4.95;;;22.60;99.90;;;;;;5074367;28;20227;-67
2021/10/03 10:14:07;;;;;;;5.75;4.80;;;22.80;99.90;;;;;;5074579;28;20235;-66
2021/10/03 10:16:41;;;;;;;5.00;4.50;;;22.80;99.90;;;;;;5074424;28;20196;-67
2021/10/03 10:19:34;;;;;;;5.68;5.18;;;22.70;99.90;;;;;;5074197;28;20191;-67
2021/10/03 10:22:30;;;;;;;6.78;4.90;;;22.60;99.90;;;;;;5073816;28;20185;-67
2021/10/03 10:25:02;;;;;;;5.68;5.07;;;22.50;99.90;;;;;;5073627;28;20211;-67
2021/10/03 10:27:59;;;;;;;5.28;4.78;;;22.60;99.90;;;;;;5073881;28;20189;-67
2021/10/03 10:30:28;;;;;;;5.10;4.60;;;22.60;99.90;;;;;;5072409;28;20258;-68
2021/10/03 10:33:17;;;;;;;5.70;5.07;;;22.50;99.90;;;;;;5070527;28;20584;-63
2021/10/03 10:35:45;;;;;;;5.93;4.90;;;22.40;99.90;;;;;;5073658;28;20830;-64
2021/10/03 10:38:15;;;;;;;6.15;4.93;;;22.50;99.90;;;;;;5073717;28;20207;-63
2021/10/03 10:40:44;;;;;;;6.35;5.43;;;22.50;99.90;;;;;;5073597;28;20291;-63
2021/10/03 10:43:46;;;;;;;5.70;5.07;;;22.50;99.90;;;;;;5073286;28;20211;-62
2021/10/03 10:46:43;;;;;;;6.43;4.97;;;22.50;99.90;;;;;;5073230;28;20255;-63
2021/10/03 10:49:37;;;;;;;5.65;5.15;;;22.60;99.90;;;;;;5073517;28;20279;-63
2021/10/03 10:52:41;;;;;;;6.88;5.00;;;22.60;99.90;;;;;;5073676;28;20264;-67
2021/10/03 10:55:31;;;;;;;7.70;5.20;;;22.70;99.90;;;;;;5065022;28;20186;-62
2021/10/03 10:58:22;;;;;;;5.10;4.60;;;22.70;99.90;;;;;;5083108;28;20276;-60
2021/10/03 11:01:01;;;;;;;5.18;4.75;;;22.70;99.90;;;;;;5073329;28;20280;-60
2021/10/03 11:04:02;;;;;;;6.07;4.70;;;22.70;99.90;;;;;;5072889;28;20193;-68
2021/10/03 11:07:04;;;;;;;5.32;4.82;;;22.70;99.90;;;;;;5067357;28;20239;-66
2021/10/03 11:09:53;;;;;;;6.35;4.97;;;22.70;99.90;;;;;;5073567;28;20184;-67
2021/10/03 11:12:33;;;;;;;6.60;4.90;;;22.80;99.90;;;;;;5072565;28;20232;-60
2021/10/03 11:15:21;;;;;;;7.45;5.00;;;22.70;99.90;;;;;;5073174;28;20211;-60
2021/10/03 11:17:51;;;;;;;4.80;4.35;;;22.80;99.90;;;;;;5072803;28;20200;-61
2021/10/03 11:20:19;;;;;;;7.20;4.80;;;22.70;99.90;;;;;;5052092;28;20354;-61
2021/10/03 11:22:48;;;;;;;4.97;4.47;;;22.60;99.90;;;;;;5064177;28;20201;-59
2021/10/03 11:32:53;;;;;;;5.25;4.63;;;22.40;99.90;;;;;;5048738;28;20219;-65
2021/10/03 11:35:21;;;;;;;5.53;4.65;;;22.40;99.90;;;;;;5071540;28;20626;-69
2021/10/03 11:37:52;;;;;;;5.68;4.35;;;22.30;99.90;;;;;;5072094;28;20288;-68
2021/10/03 11:40:23;;;;;;;5.88;4.25;;;22.30;99.90;;;;;;5071384;28;20708;-66
2021/10/03 11:42:53;;;;;;;5.47;4.45;;;22.30;99.90;;;;;;5072196;28;20224;-66
2021/10/03 11:45:23;;;;;;;5.53;4.43;;;22.20;99.90;;;;;;5071891;28;20773;-67
2021/10/03 11:47:55;;;;;;;5.30;4.80;;;22.10;99.90;;;;;;5070850;28;20256;-69
2021/10/03 11:50:26;;;;;;;5.47;4.30;;;22.00;99.90;;;;;;5071860;28;20276;-66
2021/10/03 11:52:56;;;;;;;4.60;4.13;;;22.00;99.90;;;;;;5071465;28;20602;-66
2021/10/03 11:55:33;;;;;;;5.63;4.55;;;21.90;99.90;;;;;;5071254;28;20192;-67
2021/10/03 11:58:05;;;;;;;4.70;4.30;;;21.90;99.90;;;;;;5064457;28;20645;-66
2021/10/03 12:00:34;;;;;;;6.07;4.70;;;21.90;99.90;;;;;;5058097;28;20201;-66
2021/10/03 12:03:07;;;;;;;4.78;4.38;;;21.90;99.90;;;;;;5051641;28;20210;-66
2021/10/03 12:05:35;;;;;;;5.13;4.45;;;22.00;99.90;;;;;;5051861;28;20186;-67
2021/10/03 12:08:07;;;;;;;6.47;4.43;;;22.10;99.90;;;;;;5070640;28;20894;-67
2021/10/03 12:10:41;;;;;;;5.20;4.68;;;22.10;99.90;;;;;;5071867;28;20581;-66
2021/10/03 12:13:14;;;;;;;4.63;4.22;;;22.20;99.90;;;;;;5071956;28;20237;-67
2021/10/03 12:15:50;;;;;;;4.47;4.13;;;22.20;99.90;;;;;;5071911;28;20566;-67
2021/10/03 12:18:37;;;;;;;4.60;4.18;;;22.30;99.90;;;;;;5071695;28;20180;-66
2021/10/03 12:21:07;;;;;;;5.35;4.40;;;22.30;99.90;;;;;;5071476;28;20621;-65
2021/10/03 12:23:40;;;;;;;4.88;4.28;;;22.40;99.90;;;;;;5071663;28;20291;-66
2021/10/03 12:26:11;;;;;;;5.07;3.80;;;22.40;99.90;;;;;;5071455;28;20288;-67
2021/10/03 12:29:13;;;;;;;4.55;4.15;;;22.50;99.90;;;;;;5071586;28;20209;-67
2021/10/03 12:31:58;;;;;;;5.32;4.03;;;22.50;99.90;;;;;;5070100;28;20299;-66
2021/10/03 12:34:35;;;;;;;7.00;4.60;;;22.50;99.90;;;;;;5069842;28;20618;-66
2021/10/03 12:37:25;;;;;;;5.03;4.53;;;22.50;99.90;;;;;;5071243;28;20196;-65
2021/10/03 12:39:56;;;;;;;5.00;4.07;;;22.70;99.90;;;;;;5071305;28;20212;-66
2021/10/03 12:42:26;;;;;;;4.00;3.60;;;22.60;99.90;;;;;;5071409;28;20193;-67
2021/10/03 12:44:56;;;;;;;5.15;4.30;;;22.60;99.90;;;;;;5071171;28;20259;-66
2021/10/03 12:47:24;;;;;;;6.60;4.20;;;22.70;99.90;;;;;;5073639;28;20319;-68
2021/10/03 12:49:53;;;;;;;4.97;4.47;;;22.70;99.90;;;;;;5074917;28;20222;-67
2021/10/03 12:52:22;;;;;;;4.57;4.03;;;22.70;99.90;;;;;;5075200;28;20888;-65
2021/10/03 12:54:50;;;;;;;4.72;4.32;;;22.60;99.90;;;;;;5074821;28;20315;-62
2021/10/03 12:57:18;;;;;;;5.03;4.53;;;22.60;99.90;;;;;;5074806;28;20201;-63
2021/10/03 12:59:46;;;;;;;6.78;4.75;;;22.50;99.90;;;;;;5075162;28;20203;-67
2021/10/03 13:02:14;;;;;;;4.78;4.38;;;22.50;99.90;;;;;;5075118;28;20201;-67
2021/10/03 13:05:05;;;;;;;6.10;4.10;;;22.60;99.90;;;;;;5074538;28;20197;-67
2021/10/03 13:07:33;;;;;;;7.25;4.35;;;22.50;99.90;;;;;;5074881;28;20259;-67
2021/10/03 13:10:01;;;;;;;5.35;4.18;;;22.50;99.90;;;;;;5074492;28;20209;-68